Burtonfield Tanna, Vanuatu
Current Conditions -  °F | °C
As of 4:00 AM on Saturday 25 Oct 2014 (Local Time) from NVVV Reporting Station
Overcast Overcast  
Wind Chill: 72°   Ceiling: 3800
Heat Index: 72°   Visibility: 6mi
Dew Point: 70°   Wind: 6mph
Humidity: 94%   Direction: 90°E
Pressure: 29.91"   Gusts: NA
Location:  19.53°S, 169.25°E
Report Text: NVVV 241700Z 09005KT 9999 SCT018 BKN038 OVC100 22/21 Q1013 RMK NIL
Loading
Personal Weather Stations






























Interactive Weather Map
Tropical Storm Tracking
New forecast layout! Learn more

10-Day Weather Forecast

Advertisements
Track Severe Weather on mobile